Time;durP1;ratioP1;P1;durP2;ratioP2;P2;SDS_P1;SDS_P2;PMS_P1;PMS_P2;Temp;Humidity;BMP_temperature;BMP_pressure;BME280_temperature;BME280_humidity;BME280_pressure;Samples;Min_cycle;Max_cycle;Signal;HPM_P1;HPM_P2
2022/05/15 00:02:08;;;;;;;9.75;7.53;;;;;;;;;;5114452;28;20076;-69
2022/05/15 00:04:34;;;;;;;9.20;7.22;;;;;;;;;;5114752;28;20040;-69
2022/05/15 00:07:00;;;;;;;8.68;7.55;;;;;;;;;;5114728;28;20042;-69
2022/05/15 00:09:26;;;;;;;9.98;7.95;;;;;;;;;;5115155;28;20050;-69
2022/05/15 00:11:52;;;;;;;8.02;7.20;;;;;;;;;;5115046;28;20118;-69
2022/05/15 00:14:19;;;;;;;8.43;6.97;;;;;;;;;;5114651;28;20059;-69
2022/05/15 00:16:45;;;;;;;10.80;7.20;;;;;;;;;;5114518;28;20084;-69
2022/05/15 00:19:11;;;;;;;9.40;7.28;;;;;;;;;;5117287;28;20043;-69
2022/05/15 00:21:37;;;;;;;9.63;7.30;;;;;;;;;;5118295;28;20570;-69
2022/05/15 00:24:04;;;;;;;9.93;6.75;;;;;;;;;;5118780;28;20470;-69
2022/05/15 00:26:31;;;;;;;9.68;7.07;;;;;;;;;;5118393;28;20047;-69
2022/05/15 00:28:58;;;;;;;9.40;7.05;;;;;;;;;;5118181;28;20071;-69
2022/05/15 00:31:24;;;;;;;7.97;6.50;;;;;;;;;;5118282;28;20039;-69
2022/05/15 00:33:51;;;;;;;9.40;6.72;;;;;;;;;;5118748;28;20116;-69
2022/05/15 00:36:17;;;;;;;8.00;7.18;;;;;;;;;;5118391;28;20067;-69
2022/05/15 00:38:43;;;;;;;8.20;6.95;;;;;;;;;;5118184;28;20040;-69
2022/05/15 00:41:10;;;;;;;7.72;6.68;;;;;;;;;;5118192;28;20047;-69
2022/05/15 00:43:38;;;;;;;8.27;7.03;;;;;;;;;;5118527;28;20062;-69
2022/05/15 00:46:06;;;;;;;9.52;6.53;;;;;;;;;;5118019;28;20048;-69
2022/05/15 00:48:33;;;;;;;9.10;6.63;;;;;;;;;;5118150;28;20118;-69
2022/05/15 00:51:01;;;;;;;7.80;6.53;;;;;;;;;;5117756;28;20359;-69
2022/05/15 00:53:28;;;;;;;7.88;6.90;;;;;;;;;;5118097;28;20131;-69
2022/05/15 00:55:54;;;;;;;8.73;7.28;;;;;;;;;;5117854;28;20035;-69
2022/05/15 00:58:24;;;;;;;10.20;7.22;;;;;;;;;;5117982;28;20482;-69
2022/05/15 01:00:50;;;;;;;9.63;7.53;;;;;;;;;;5117845;28;20046;-69
2022/05/15 01:03:18;;;;;;;8.60;7.22;;;;;;;;;;5118033;28;20111;-69
2022/05/15 01:05:46;;;;;;;8.13;6.95;;;;;;;;;;5118188;28;20047;-69
2022/05/15 01:08:12;;;;;;;8.50;6.65;;;;;;;;;;5117616;28;20126;-69
2022/05/15 01:10:40;;;;;;;11.23;7.45;;;;;;;;;;5117674;28;20040;-69
2022/05/15 01:13:06;;;;;;;8.90;6.97;;;;;;;;;;5118090;28;20082;-69
2022/05/15 01:15:33;;;;;;;7.97;7.07;;;;;;;;;;5117256;28;20042;-69
2022/05/15 01:18:00;;;;;;;8.05;7.15;;;;;;;;;;5117659;28;20042;-69
2022/05/15 01:20:27;;;;;;;8.25;6.80;;;;;;;;;;5117200;28;20035;-69
2022/05/15 01:22:54;;;;;;;8.25;6.47;;;;;;;;;;5117990;28;20035;-69
2022/05/15 01:25:25;;;;;;;11.60;7.35;;;;;;;;;;5117097;28;20550;-69
2022/05/15 01:27:56;;;;;;;7.88;6.65;;;;;;;;;;5117063;28;20501;-69
2022/05/15 01:30:23;;;;;;;8.38;6.93;;;;;;;;;;5116158;28;20147;-69
2022/05/15 01:32:49;;;;;;;10.32;7.35;;;;;;;;;;5116822;28;20118;-69
2022/05/15 01:35:15;;;;;;;7.78;6.90;;;;;;;;;;5116872;28;20109;-69
2022/05/15 01:37:41;;;;;;;12.77;7.50;;;;;;;;;;5116523;28;20054;-69
2022/05/15 01:40:08;;;;;;;12.27;7.32;;;;;;;;;;5116514;28;20046;-69
2022/05/15 01:42:34;;;;;;;8.57;6.90;;;;;;;;;;5116440;28;20486;-69
2022/05/15 01:45:00;;;;;;;9.40;7.20;;;;;;;;;;5116343;28;20197;-69
2022/05/15 01:47:26;;;;;;;8.48;6.75;;;;;;;;;;5116622;28;20047;-69
2022/05/15 01:49:52;;;;;;;11.88;7.03;;;;;;;;;;5117028;28;20040;-69
2022/05/15 01:52:19;;;;;;;8.05;7.18;;;;;;;;;;5116277;28;20100;-69
2022/05/15 01:54:45;;;;;;;9.05;7.07;;;;;;;;;;5116577;28;20073;-69
2022/05/15 01:57:11;;;;;;;8.63;7.53;;;;;;;;;;5116438;28;20077;-69
2022/05/15 01:59:38;;;;;;;8.65;7.40;;;;;;;;;;5116699;28;20046;-69
2022/05/15 02:02:05;;;;;;;7.85;7.05;;;;;;;;;;5116227;28;20035;-69
2022/05/15 02:04:31;;;;;;;8.55;7.00;;;;;;;;;;5116272;28;20044;-69
2022/05/15 02:06:57;;;;;;;10.20;7.43;;;;;;;;;;5116352;28;20045;-69
2022/05/15 02:09:23;;;;;;;9.60;7.32;;;;;;;;;;5116448;28;20478;-69
2022/05/15 02:11:50;;;;;;;8.65;7.38;;;;;;;;;;5115970;28;20084;-69
2022/05/15 02:14:16;;;;;;;13.00;7.70;;;;;;;;;;5116164;28;20059;-69
2022/05/15 02:16:42;;;;;;;8.55;7.38;;;;;;;;;;5116316;28;20123;-69
2022/05/15 02:19:08;;;;;;;9.10;7.20;;;;;;;;;;5115768;28;20042;-69
2022/05/15 02:21:35;;;;;;;11.15;7.78;;;;;;;;;;5115954;28;20044;-69
2022/05/15 02:24:01;;;;;;;11.10;7.85;;;;;;;;;;5116178;28;20076;-69
2022/05/15 02:26:27;;;;;;;8.50;6.80;;;;;;;;;;5115578;28;20587;-69
2022/05/15 02:28:53;;;;;;;10.30;7.70;;;;;;;;;;5115857;28;20035;-69
2022/05/15 02:31:19;;;;;;;11.30;7.45;;;;;;;;;;5115471;28;20074;-69
2022/05/15 02:33:45;;;;;;;12.13;7.63;;;;;;;;;;5115335;28;20071;-69
2022/05/15 02:36:11;;;;;;;8.18;7.32;;;;;;;;;;5115380;28;20482;-69
2022/05/15 02:38:38;;;;;;;10.05;7.90;;;;;;;;;;5115934;28;20036;-69
2022/05/15 02:41:04;;;;;;;10.35;7.57;;;;;;;;;;5114937;28;20032;-69
2022/05/15 02:43:31;;;;;;;10.35;7.80;;;;;;;;;;5115151;28;20490;-69
2022/05/15 02:45:57;;;;;;;11.65;7.82;;;;;;;;;;5115478;28;20043;-69
2022/05/15 02:51:08;;;;;;;10.50;7.75;;;;;;;;;;5114950;28;20042;-69
2022/05/15 02:53:40;;;;;;;12.93;7.70;;;;;;;;;;5115058;28;20440;-69
2022/05/15 02:56:18;;;;;;;8.85;7.10;;;;;;;;;;5115132;28;20052;-69
2022/05/15 02:58:44;;;;;;;8.65;7.75;;;;;;;;;;5115603;28;20039;-69
2022/05/15 03:01:10;;;;;;;8.90;7.32;;;;;;;;;;5114992;28;20081;-69
2022/05/15 03:03:36;;;;;;;8.63;7.68;;;;;;;;;;5115314;28;20043;-69
2022/05/15 03:06:04;;;;;;;10.07;7.40;;;;;;;;;;5115132;28;20080;-69
2022/05/15 03:08:32;;;;;;;8.63;7.72;;;;;;;;;;5114814;28;20031;-69
2022/05/15 03:10:58;;;;;;;9.43;7.32;;;;;;;;;;5115129;28;20040;-69
2022/05/15 03:13:24;;;;;;;11.35;7.53;;;;;;;;;;5115101;28;20066;-69
2022/05/15 03:15:50;;;;;;;8.75;7.60;;;;;;;;;;5115209;28;20044;-69
2022/05/15 03:18:17;;;;;;;8.45;7.65;;;;;;;;;;5114621;28;20070;-69
2022/05/15 03:20:43;;;;;;;9.82;7.45;;;;;;;;;;5114998;28;20512;-69
2022/05/15 03:23:09;;;;;;;12.55;7.20;;;;;;;;;;5115031;28;20075;-69
2022/05/15 03:25:35;;;;;;;9.15;7.60;;;;;;;;;;5114904;28;20043;-69
2022/05/15 03:28:04;;;;;;;9.50;7.45;;;;;;;;;;5114596;28;20478;-69
2022/05/15 03:30:30;;;;;;;9.10;7.10;;;;;;;;;;5114921;28;20127;-69
2022/05/15 03:32:56;;;;;;;14.32;8.75;;;;;;;;;;5114434;28;20138;-69
2022/05/15 03:35:22;;;;;;;13.50;9.10;;;;;;;;;;5115051;28;20040;-69
2022/05/15 03:37:48;;;;;;;10.43;8.93;;;;;;;;;;5114840;28;20183;-69
2022/05/15 03:40:15;;;;;;;9.00;8.07;;;;;;;;;;5115054;28;20031;-69
2022/05/15 03:42:42;;;;;;;11.77;7.95;;;;;;;;;;5114897;28;20132;-69
2022/05/15 03:45:08;;;;;;;10.55;7.63;;;;;;;;;;5114714;28;20043;-69
2022/05/15 03:47:35;;;;;;;9.57;7.50;;;;;;;;;;5114606;28;20066;-69
2022/05/15 03:50:02;;;;;;;11.73;9.07;;;;;;;;;;5114442;28;20050;-69
2022/05/15 03:52:28;;;;;;;14.48;9.07;;;;;;;;;;5115081;28;20046;-69
2022/05/15 03:54:54;;;;;;;9.73;8.38;;;;;;;;;;5118536;28;20043;-69
2022/05/15 03:57:20;;;;;;;9.95;7.85;;;;;;;;;;5118778;28;20121;-69
2022/05/15 03:59:46;;;;;;;9.25;7.60;;;;;;;;;;5119015;28;20088;-69
2022/05/15 04:02:12;;;;;;;10.25;7.57;;;;;;;;;;5118550;28;20044;-69
2022/05/15 04:04:39;;;;;;;11.35;7.97;;;;;;;;;;5118250;28;20070;-69
2022/05/15 04:07:05;;;;;;;10.60;8.10;;;;;;;;;;5118222;28;20047;-69
2022/05/15 04:09:32;;;;;;;9.35;7.38;;;;;;;;;;5118808;28;20036;-69
2022/05/15 04:11:59;;;;;;;9.82;7.20;;;;;;;;;;5118538;28;20092;-69
2022/05/15 04:14:25;;;;;;;10.02;7.50;;;;;;;;;;5118899;28;20067;-69
2022/05/15 04:16:51;;;;;;;11.35;8.05;;;;;;;;;;5118409;28;20042;-69
2022/05/15 04:19:17;;;;;;;10.38;7.65;;;;;;;;;;5118675;28;20046;-69
2022/05/15 04:21:43;;;;;;;9.27;8.15;;;;;;;;;;5118895;28;20041;-69
2022/05/15 04:24:11;;;;;;;12.70;8.60;;;;;;;;;;5119128;28;20086;-69
2022/05/15 04:26:37;;;;;;;9.23;8.00;;;;;;;;;;5118537;28;20071;-69
2022/05/15 04:29:04;;;;;;;10.98;8.05;;;;;;;;;;5118218;28;20482;-69
2022/05/15 04:31:31;;;;;;;10.68;8.63;;;;;;;;;;5118430;28;20498;-69
2022/05/15 04:33:57;;;;;;;11.07;9.02;;;;;;;;;;5118538;28;20043;-69
2022/05/15 04:36:23;;;;;;;10.95;9.27;;;;;;;;;;5118336;28;20046;-69
2022/05/15 04:38:49;;;;;;;13.43;10.55;;;;;;;;;;5118024;28;20431;-68
2022/05/15 04:41:15;;;;;;;15.65;11.40;;;;;;;;;;5118322;28;20027;-69
2022/05/15 04:43:42;;;;;;;17.20;11.10;;;;;;;;;;5118664;28;20039;-69
2022/05/15 04:46:08;;;;;;;17.45;12.15;;;;;;;;;;5117924;28;20047;-69
2022/05/15 04:48:35;;;;;;;16.90;12.40;;;;;;;;;;5117907;28;20037;-69
2022/05/15 04:51:01;;;;;;;16.10;11.88;;;;;;;;;;5117754;28;20058;-69
2022/05/15 04:53:27;;;;;;;19.60;11.88;;;;;;;;;;5117471;28;20444;-69
2022/05/15 04:55:54;;;;;;;17.85;12.43;;;;;;;;;;5117694;28;20043;-69
2022/05/15 04:58:20;;;;;;;14.93;11.32;;;;;;;;;;5117626;28;20582;-69
2022/05/15 05:00:46;;;;;;;15.15;11.40;;;;;;;;;;5117549;28;20049;-69
2022/05/15 05:03:12;;;;;;;16.15;10.85;;;;;;;;;;5116452;28;20040;-69
2022/05/15 05:05:38;;;;;;;15.88;11.55;;;;;;;;;;5126403;27;20045;-69
2022/05/15 05:08:05;;;;;;;14.35;10.82;;;;;;;;;;5137993;27;20043;-69
2022/05/15 05:10:31;;;;;;;15.60;10.18;;;;;;;;;;5119868;27;20034;-69
2022/05/15 05:12:58;;;;;;;19.10;10.20;;;;;;;;;;5116915;28;20487;-69
2022/05/15 05:15:24;;;;;;;13.70;10.07;;;;;;;;;;5134955;27;20520;-69
2022/05/15 05:17:50;;;;;;;15.23;9.52;;;;;;;;;;5133223;27;20050;-70
2022/05/15 05:20:17;;;;;;;14.30;9.07;;;;;;;;;;5117315;28;20115;-70
2022/05/15 05:22:43;;;;;;;12.63;8.82;;;;;;;;;;5116978;28;20052;-69
2022/05/15 05:25:10;;;;;;;12.27;8.38;;;;;;;;;;5117063;28;20039;-69
2022/05/15 05:27:41;;;;;;;12.80;7.88;;;;;;;;;;5117073;28;20039;-69
2022/05/15 05:30:07;;;;;;;;;;;;;;;;;;5116495;28;20510;-69
2022/05/15 05:32:33;;;;;;;10.13;7.47;;;;;;;;;;5116987;28;19915;-69
2022/05/15 05:34:59;;;;;;;11.27;8.00;;;;;;;;;;5117477;28;20040;-69
2022/05/15 05:37:25;;;;;;;11.68;8.80;;;;;;;;;;5116192;28;20096;-69
2022/05/15 05:39:52;;;;;;;13.57;8.45;;;;;;;;;;5116456;28;20114;-69
2022/05/15 05:42:18;;;;;;;13.63;8.00;;;;;;;;;;5117173;28;20065;-69
2022/05/15 05:44:44;;;;;;;19.25;8.27;;;;;;;;;;5116550;28;20118;-69
2022/05/15 05:47:10;;;;;;;9.45;7.28;;;;;;;;;;5116584;28;20528;-69
2022/05/15 05:49:36;;;;;;;13.10;7.90;;;;;;;;;;5116757;28;20035;-69
2022/05/15 05:52:03;;;;;;;10.65;7.82;;;;;;;;;;5116861;28;20039;-69
2022/05/15 05:54:29;;;;;;;14.07;7.65;;;;;;;;;;5116798;28;20049;-69
2022/05/15 05:56:57;;;;;;;15.75;8.10;;;;;;;;;;5116220;28;20129;-69
2022/05/15 05:59:23;;;;;;;14.63;8.02;;;;;;;;;;5115904;28;20092;-69
2022/05/15 06:01:49;;;;;;;12.43;7.72;;;;;;;;;;5116427;28;20101;-69
2022/05/15 06:07:00;;;;;;;12.73;7.55;;;;;;;;;;5124582;27;20433;-69
2022/05/15 06:09:26;;;;;;;11.75;6.90;;;;;;;;;;5126463;27;20040;-69
2022/05/15 06:11:52;;;;;;;12.05;7.25;;;;;;;;;;5116364;28;20035;-69
2022/05/15 06:14:18;;;;;;;9.23;6.45;;;;;;;;;;5115788;28;20059;-69
2022/05/15 06:16:45;;;;;;;15.80;7.55;;;;;;;;;;5115138;28;20039;-69
2022/05/15 06:19:11;;;;;;;12.20;7.80;;;;;;;;;;5114837;28;20035;-69
2022/05/15 06:21:39;;;;;;;15.32;7.40;;;;;;;;;;5115390;28;20035;-69
2022/05/15 06:24:05;;;;;;;10.90;6.55;;;;;;;;;;5097265;28;20074;-69
2022/05/15 06:26:31;;;;;;;15.20;6.72;;;;;;;;;;5115513;28;20050;-69
2022/05/15 06:28:58;;;;;;;10.15;6.15;;;;;;;;;;5116420;28;20036;-69
2022/05/15 06:31:25;;;;;;;10.18;7.00;;;;;;;;;;5115653;28;20183;-69
2022/05/15 06:33:51;;;;;;;12.68;6.57;;;;;;;;;;5115893;28;20047;-70
2022/05/15 06:36:17;;;;;;;15.20;6.63;;;;;;;;;;5115140;27;20165;-70
2022/05/15 06:38:44;;;;;;;9.52;6.32;;;;;;;;;;5114425;28;20050;-70
2022/05/15 06:41:11;;;;;;;15.52;6.60;;;;;;;;;;5113761;28;20118;-70
2022/05/15 06:43:37;;;;;;;11.45;6.22;;;;;;;;;;5114003;28;20061;-70
2022/05/15 06:46:04;;;;;;;10.05;6.38;;;;;;;;;;5114013;28;20402;-69
2022/05/15 06:48:30;;;;;;;15.68;6.45;;;;;;;;;;5100133;28;20058;-68
2022/05/15 06:50:56;;;;;;;13.98;5.97;;;;;;;;;;5111758;28;20038;-69
2022/05/15 06:53:23;;;;;;;9.80;5.50;;;;;;;;;;5114370;27;20073;-69
2022/05/15 06:58:34;;;;;;;14.32;6.30;;;;;;;;;;5112524;28;20046;-68
2022/05/15 07:01:01;;;;;;;11.07;5.57;;;;;;;;;;5114905;28;20066;-68
2022/05/15 07:03:27;;;;;;;13.35;5.82;;;;;;;;;;5111597;28;20094;-68
2022/05/15 07:05:53;;;;;;;12.23;5.85;;;;;;;;;;5102878;28;20123;-68
2022/05/15 07:08:19;;;;;;;15.95;5.97;;;;;;;;;;5117505;28;20073;-69
2022/05/15 07:10:45;;;;;;;9.45;5.13;;;;;;;;;;5108976;28;20574;-68
2022/05/15 07:13:12;;;;;;;13.63;5.55;;;;;;;;;;5106851;28;20047;-69
2022/05/15 07:15:38;;;;;;;11.27;5.72;;;;;;;;;;5113553;28;20070;-69
2022/05/15 07:18:05;;;;;;;16.75;5.78;;;;;;;;;;5109467;28;20042;-69
2022/05/15 07:20:32;;;;;;;10.73;4.90;;;;;;;;;;5110628;28;20118;-69
2022/05/15 07:22:58;;;;;;;11.13;5.40;;;;;;;;;;5113098;28;20095;-69
2022/05/15 07:25:24;;;;;;;10.20;4.95;;;;;;;;;;5107218;28;20091;-69
2022/05/15 07:27:50;;;;;;;10.10;5.05;;;;;;;;;;5110445;28;20131;-69
2022/05/15 07:30:17;;;;;;;9.25;4.72;;;;;;;;;;5110532;28;20031;-69
2022/05/15 07:32:44;;;;;;;9.85;5.15;;;;;;;;;;5109777;28;20122;-69
2022/05/15 07:35:10;;;;;;;11.35;4.43;;;;;;;;;;5110027;28;20047;-69
2022/05/15 07:37:36;;;;;;;11.30;4.80;;;;;;;;;;5115261;28;20075;-69
2022/05/15 07:40:03;;;;;;;11.93;4.35;;;;;;;;;;5110109;28;20046;-69
2022/05/15 07:42:29;;;;;;;12.95;5.13;;;;;;;;;;5109256;28;20114;-69
2022/05/15 07:44:57;;;;;;;13.57;5.00;;;;;;;;;;5114932;28;20040;-69
2022/05/15 07:47:24;;;;;;;12.50;4.35;;;;;;;;;;5110051;28;20035;-69
2022/05/15 07:49:50;;;;;;;9.82;4.40;;;;;;;;;;5104574;28;20272;-69
2022/05/15 07:52:17;;;;;;;10.68;4.72;;;;;;;;;;5107745;28;20051;-69
2022/05/15 07:54:43;;;;;;;11.30;4.82;;;;;;;;;;5104965;28;20044;-69
2022/05/15 07:57:09;;;;;;;12.77;4.05;;;;;;;;;;5117879;28;20039;-69
2022/05/15 07:59:35;;;;;;;14.40;5.07;;;;;;;;;;5088050;28;20403;-69
2022/05/15 08:02:06;;;;;;;13.18;4.47;;;;;;;;;;5104095;28;20036;-69
2022/05/15 08:08:00;;;;;;;11.13;4.68;;;;;;;;;;5110593;28;20521;-69
2022/05/15 08:10:03;;;;;;;12.57;4.78;;;;;;;;;;5097315;28;20039;-69
2022/05/15 08:12:29;;;;;;;12.18;4.30;;;;;;;;;;5107954;28;20127;-69
2022/05/15 08:14:56;;;;;;;13.27;4.85;;;;;;;;;;5108727;28;20044;-69
2022/05/15 08:17:22;;;;;;;12.52;4.60;;;;;;;;;;5109710;28;20043;-68
2022/05/15 08:25:21;;;;;;;10.60;4.50;;;;;;;;;;5112122;28;20108;-68
2022/05/15 08:27:49;;;;;;;11.55;5.32;;;;;;;;;;5113771;28;20039;-69
2022/05/15 08:30:17;;;;;;;10.38;4.05;;;;;;;;;;5109616;28;20096;-68
2022/05/15 08:32:44;;;;;;;11.57;4.68;;;;;;;;;;5104244;28;20107;-68
2022/05/15 08:35:10;;;;;;;11.38;4.57;;;;;;;;;;5101096;28;20055;-68
2022/05/15 08:37:37;;;;;;;12.75;5.30;;;;;;;;;;5110231;28;20393;-68
2022/05/15 08:40:04;;;;;;;10.23;4.78;;;;;;;;;;5110823;28;20044;-69
2022/05/15 08:42:47;;;;;;;12.68;4.50;;;;;;;;;;5115708;28;20058;-69
2022/05/15 08:45:15;;;;;;;10.35;4.50;;;;;;;;;;5105607;28;20126;-69
2022/05/15 08:47:45;;;;;;;12.98;5.43;;;;;;;;;;5112287;27;20120;-69
2022/05/15 08:50:13;;;;;;;13.43;4.90;;;;;;;;;;5113674;27;20048;-69
2022/05/15 08:52:57;;;;;;;9.48;4.72;;;;;;;;;;5107378;27;20035;-69
2022/05/15 08:55:32;;;;;;;9.30;4.68;;;;;;;;;;5113315;28;20039;-69
2022/05/15 08:58:04;;;;;;;14.13;5.03;;;;;;;;;;5116345;28;20040;-69
2022/05/15 09:00:38;;;;;;;11.38;5.22;;;;;;;;;;5115657;28;20043;-69
2022/05/15 09:03:23;;;;;;;14.90;5.10;;;;;;;;;;5115826;28;20040;-69
2022/05/15 09:06:01;;;;;;;14.23;5.28;;;;;;;;;;5094870;28;20067;-69
2022/05/15 09:08:27;;;;;;;12.80;4.50;;;;;;;;;;5095076;28;20117;-69
2022/05/15 09:10:53;;;;;;;14.00;4.30;;;;;;;;;;5114010;28;20043;-69
2022/05/15 09:13:32;;;;;;;11.77;4.10;;;;;;;;;;5117304;27;20055;-69
2022/05/15 09:16:00;;;;;;;9.07;4.50;;;;;;;;;;5136940;27;20515;-69
2022/05/15 09:18:28;;;;;;;13.30;4.70;;;;;;;;;;5136642;27;20070;-69
2022/05/15 09:21:09;;;;;;;11.18;4.25;;;;;;;;;;5116573;28;20114;-69
2022/05/15 09:23:38;;;;;;;11.98;4.03;;;;;;;;;;5116055;28;20109;-69
2022/05/15 09:26:07;;;;;;;13.18;4.72;;;;;;;;;;5115291;28;20088;-69
2022/05/15 09:28:41;;;;;;;9.63;3.95;;;;;;;;;;5116542;28;20039;-69
2022/05/15 09:31:19;;;;;;;11.35;4.60;;;;;;;;;;5098071;28;20031;-69
2022/05/15 09:33:50;;;;;;;11.70;4.68;;;;;;;;;;5116355;28;20040;-69
2022/05/15 09:36:22;;;;;;;10.35;4.05;;;;;;;;;;5116156;28;20172;-69
2022/05/15 09:38:49;;;;;;;14.73;4.38;;;;;;;;;;5116538;28;20067;-69
2022/05/15 09:44:29;;;;;;;13.25;5.00;;;;;;;;;;5119148;27;20065;-70
2022/05/15 09:47:20;;;;;;;14.73;4.03;;;;;;;;;;5115525;28;20521;-69
2022/05/15 09:49:46;;;;;;;8.90;4.05;;;;;;;;;;5123684;27;20043;-69
2022/05/15 09:52:31;;;;;;;14.05;4.30;;;;;;;;;;5115266;27;20393;-69
2022/05/15 09:55:09;;;;;;;11.40;3.97;;;;;;;;;;5110719;27;20047;-69
2022/05/15 09:57:36;;;;;;;10.90;3.75;;;;;;;;;;5114215;28;20032;-69
2022/05/15 10:00:08;;;;;;;6.93;4.10;;;;;;;;;;5113656;27;20040;-69
2022/05/15 10:02:37;;;;;;;10.00;3.90;;;;;;;;;;5109269;28;20039;-69
2022/05/15 10:05:07;;;;;;;11.23;3.78;;;;;;;;;;5115300;28;20130;-69
2022/05/15 10:07:45;;;;;;;9.68;4.00;;;;;;;;;;5111032;28;20038;-69
2022/05/15 10:10:26;;;;;;;9.70;3.83;;;;;;;;;;5098832;28;20052;-70
2022/05/15 10:13:19;;;;;;;12.13;4.30;;;;;;;;;;5110748;28;20055;-69
2022/05/15 10:15:46;;;;;;;8.15;3.67;;;;;;;;;;5080134;28;20074;-69
2022/05/15 10:18:16;;;;;;;12.68;3.63;;;;;;;;;;5116182;27;20039;-69
2022/05/15 10:20:44;;;;;;;9.63;3.50;;;;;;;;;;5132139;27;20039;-69
2022/05/15 10:23:19;;;;;;;9.20;4.20;;;;;;;;;;5129833;27;20197;-70
2022/05/15 10:25:46;;;;;;;7.47;3.33;;;;;;;;;;5126351;27;20126;-70
2022/05/15 10:28:32;;;;;;;8.88;4.03;;;;;;;;;;5119823;27;20417;-70
2022/05/15 10:31:18;;;;;;;8.73;4.07;;;;;;;;;;5111892;28;20127;-73
2022/05/15 10:33:46;;;;;;;11.85;4.22;;;;;;;;;;5113513;27;20565;-70
2022/05/15 10:36:23;;;;;;;10.95;3.53;;;;;;;;;;5108884;28;20051;-70
2022/05/15 10:38:55;;;;;;;11.07;3.58;;;;;;;;;;5116105;27;20039;-70
2022/05/15 10:41:26;;;;;;;9.25;4.03;;;;;;;;;;5114998;27;20482;-70
2022/05/15 10:43:53;;;;;;;10.57;4.22;;;;;;;;;;5115318;28;20040;-71
2022/05/15 10:46:25;;;;;;;10.27;3.47;;;;;;;;;;5110224;28;20035;-70
2022/05/15 10:48:51;;;;;;;10.68;4.20;;;;;;;;;;5112130;28;20043;-71
2022/05/15 10:51:38;;;;;;;13.50;3.80;;;;;;;;;;5107341;28;20043;-70
2022/05/15 10:57:24;;;;;;;7.78;3.80;;;;;;;;;;5103219;28;20039;-70
2022/05/15 10:59:50;;;;;;;9.15;3.58;;;;;;;;;;5105848;28;20032;-70
2022/05/15 11:02:19;;;;;;;11.32;4.18;;;;;;;;;;5099937;28;20039;-70
2022/05/15 11:04:52;;;;;;;7.63;3.42;;;;;;;;;;5101777;28;20493;-70
2022/05/15 11:07:27;;;;;;;10.88;4.72;;;;;;;;;;5102342;28;20036;-70
2022/05/15 11:10:09;;;;;;;15.32;6.53;;;;;;;;;;5109598;28;20038;-70
2022/05/15 11:12:36;;;;;;;17.60;7.65;;;;;;;;;;5115006;28;20057;-70
2022/05/15 11:15:02;;;;;;;10.70;4.43;;;;;;;;;;5108999;28;20067;-70
2022/05/15 11:17:51;;;;;;;15.00;5.82;;;;;;;;;;5103142;28;20070;-70
2022/05/15 11:20:20;;;;;;;11.80;5.20;;;;;;;;;;5099124;28;20502;-70
2022/05/15 11:22:48;;;;;;;15.60;5.05;;;;;;;;;;5112277;28;20146;-69
2022/05/15 11:25:23;;;;;;;12.77;4.80;;;;;;;;;;5096895;28;20047;-70
2022/05/15 11:27:57;;;;;;;40.40;16.45;;;;;;;;;;5120105;28;20039;-69
2022/05/15 11:30:33;;;;;;;15.93;5.18;;;;;;;;;;5123853;28;20489;-70
2022/05/15 11:33:05;;;;;;;8.93;4.45;;;;;;;;;;5096697;28;20074;-70
2022/05/15 11:35:33;;;;;;;12.95;4.88;;;;;;;;;;5096354;28;20048;-70
2022/05/15 11:38:02;;;;;;;10.40;4.90;;;;;;;;;;5106585;28;20067;-70
2022/05/15 11:40:30;;;;;;;11.00;4.60;;;;;;;;;;5110162;28;20525;-69
2022/05/15 11:42:57;;;;;;;9.90;4.65;;;;;;;;;;5097293;28;20067;-70
2022/05/15 11:45:30;;;;;;;11.35;4.15;;;;;;;;;;5110044;28;20036;-70
2022/05/15 11:48:03;;;;;;;9.73;4.13;;;;;;;;;;5106721;28;20057;-69
2022/05/15 11:50:31;;;;;;;8.70;3.70;;;;;;;;;;5113711;28;20036;-69
2022/05/15 11:52:57;;;;;;;12.60;4.50;;;;;;;;;;5112326;28;20074;-70
2022/05/15 11:55:44;;;;;;;9.50;4.28;;;;;;;;;;5109097;28;20047;-69
2022/05/15 11:58:17;;;;;;;13.57;4.72;;;;;;;;;;5114604;28;20465;-69
2022/05/15 12:00:43;;;;;;;11.40;4.38;;;;;;;;;;5134606;28;20055;-70
2022/05/15 12:03:44;;;;;;;11.65;4.90;;;;;;;;;;5114079;28;20088;-71
2022/05/15 12:06:12;;;;;;;9.57;4.45;;;;;;;;;;5111802;28;20050;-70
2022/05/15 12:08:39;;;;;;;8.50;3.80;;;;;;;;;;5120709;28;20553;-72
2022/05/15 12:11:23;;;;;;;8.95;4.18;;;;;;;;;;5114925;28;20040;-69
2022/05/15 12:13:49;;;;;;;9.55;4.00;;;;;;;;;;5111247;28;20498;-69
2022/05/15 12:16:20;;;;;;;10.93;4.13;;;;;;;;;;5110807;28;20066;-69
2022/05/15 12:18:57;;;;;;;8.45;3.97;;;;;;;;;;5116931;28;20044;-69
2022/05/15 12:21:29;;;;;;;11.75;4.43;;;;;;;;;;5117704;28;20042;-69
2022/05/15 12:26:48;;;;;;;9.85;4.40;;;;;;;;;;5112640;28;20552;-69
2022/05/15 12:29:20;;;;;;;12.68;4.60;;;;;;;;;;5115927;28;20047;-69
2022/05/15 12:31:46;;;;;;;12.30;4.00;;;;;;;;;;5115779;28;20039;-69
2022/05/15 12:34:15;;;;;;;12.93;4.18;;;;;;;;;;5117157;28;20032;-69
2022/05/15 12:36:45;;;;;;;10.73;4.45;;;;;;;;;;5117141;28;20039;-69
2022/05/15 12:39:15;;;;;;;8.77;4.73;;;;;;;;;;5107526;28;20035;-69
2022/05/15 12:41:45;;;;;;;13.85;4.07;;;;;;;;;;5116328;28;20258;-69
2022/05/15 12:44:11;;;;;;;12.98;4.78;;;;;;;;;;5116032;28;20046;-69
2022/05/15 12:46:40;;;;;;;11.05;4.30;;;;;;;;;;5116601;28;20074;-69
2022/05/15 12:49:07;;;;;;;12.05;4.65;;;;;;;;;;5116294;28;20039;-69
2022/05/15 12:51:35;;;;;;;8.70;4.00;;;;;;;;;;5116853;28;20027;-69
2022/05/15 12:54:03;;;;;;;8.57;3.53;;;;;;;;;;5119531;27;20581;-69
2022/05/15 12:56:33;;;;;;;8.85;4.07;;;;;;;;;;5137259;27;20501;-69
2022/05/15 12:59:13;;;;;;;8.13;3.65;;;;;;;;;;5126118;27;20031;-69
2022/05/15 13:01:40;;;;;;;8.93;4.27;;;;;;;;;;5116103;28;20161;-69
2022/05/15 13:04:07;;;;;;;8.82;3.70;;;;;;;;;;5116237;28;20036;-69
2022/05/15 13:06:38;;;;;;;9.70;4.40;;;;;;;;;;5099215;28;20074;-69
2022/05/15 13:09:06;;;;;;;7.88;3.30;;;;;;;;;;5116005;28;20047;-69
2022/05/15 13:11:46;;;;;;;8.30;3.80;;;;;;;;;;5115655;28;20039;-69
2022/05/15 13:14:17;;;;;;;8.43;4.28;;;;;;;;;;5113179;27;20063;-69
2022/05/15 13:16:45;;;;;;;8.63;3.75;;;;;;;;;;5115409;28;20043;-69
2022/05/15 13:19:13;;;;;;;9.52;3.90;;;;;;;;;;5115356;28;20047;-69
2022/05/15 13:21:42;;;;;;;11.48;3.80;;;;;;;;;;5114643;28;20067;-69
2022/05/15 13:24:09;;;;;;;7.90;3.35;;;;;;;;;;5118089;27;20039;-69
2022/05/15 13:26:38;;;;;;;6.85;3.25;;;;;;;;;;5114528;28;20039;-69
2022/05/15 13:29:05;;;;;;;8.10;3.75;;;;;;;;;;5132440;27;20099;-69
2022/05/15 13:31:32;;;;;;;11.77;3.60;;;;;;;;;;5114806;28;20042;-69
2022/05/15 13:33:58;;;;;;;10.77;3.58;;;;;;;;;;5115798;28;20036;-69
2022/05/15 13:36:25;;;;;;;8.50;3.40;;;;;;;;;;5117339;27;20074;-69
2022/05/15 13:44:27;;;;;;;13.95;4.25;;;;;;;;;;5118480;27;20111;-69
2022/05/15 13:47:05;;;;;;;7.55;3.58;;;;;;;;;;5114913;28;20553;-69
2022/05/15 13:49:41;;;;;;;10.82;4.05;;;;;;;;;;5114683;28;20301;-69
2022/05/15 13:52:30;;;;;;;13.27;4.05;;;;;;;;;;5115708;28;20051;-69
2022/05/15 13:54:58;;;;;;;12.93;3.97;;;;;;;;;;5114037;28;20040;-69
2022/05/15 13:57:25;;;;;;;9.20;3.75;;;;;;;;;;5126569;27;20031;-69
2022/05/15 13:59:51;;;;;;;11.38;4.05;;;;;;;;;;5115335;28;20042;-69
2022/05/15 14:02:21;;;;;;;8.65;3.72;;;;;;;;;;5114875;28;20043;-69
2022/05/15 14:04:54;;;;;;;9.05;3.92;;;;;;;;;;5114481;28;20043;-69
2022/05/15 14:07:32;;;;;;;7.65;3.90;;;;;;;;;;5114933;28;20114;-69
2022/05/15 14:10:00;;;;;;;11.05;4.40;;;;;;;;;;5113927;28;20042;-69
2022/05/15 14:12:45;;;;;;;9.75;3.70;;;;;;;;;;5114978;28;20111;-69
2022/05/15 14:15:29;;;;;;;9.30;3.45;;;;;;;;;;5121550;27;20039;-69
2022/05/15 14:17:58;;;;;;;13.90;4.45;;;;;;;;;;5123596;27;20444;-69
2022/05/15 14:20:30;;;;;;;11.25;3.90;;;;;;;;;;5114561;28;20118;-69
2022/05/15 14:22:56;;;;;;;9.43;5.50;;;;;;;;;;5115518;28;20043;-69
2022/05/15 14:25:23;;;;;;;11.43;4.35;;;;;;;;;;5114500;28;20043;-69
2022/05/15 14:27:49;;;;;;;9.25;3.72;;;;;;;;;;5113952;28;20077;-69
2022/05/15 14:30:15;;;;;;;11.80;3.97;;;;;;;;;;5113889;28;20035;-69
2022/05/15 14:32:41;;;;;;;8.32;3.92;;;;;;;;;;5115220;28;20043;-69
2022/05/15 14:35:09;;;;;;;7.43;3.72;;;;;;;;;;5114183;28;20043;-69
2022/05/15 14:37:35;;;;;;;9.48;4.03;;;;;;;;;;5114991;28;20124;-69
2022/05/15 14:40:01;;;;;;;12.98;4.38;;;;;;;;;;5115007;28;20144;-69
2022/05/15 14:42:29;;;;;;;8.70;3.63;;;;;;;;;;5113971;28;20039;-69
2022/05/15 14:44:58;;;;;;;10.88;4.10;;;;;;;;;;5114474;28;20040;-69
2022/05/15 14:47:25;;;;;;;11.00;3.67;;;;;;;;;;5114763;28;20104;-69
2022/05/15 14:49:52;;;;;;;11.02;4.00;;;;;;;;;;5115368;27;20054;-69
2022/05/15 14:52:21;;;;;;;9.93;3.95;;;;;;;;;;5114161;28;20036;-69
2022/05/15 14:54:47;;;;;;;7.40;3.20;;;;;;;;;;5132723;27;20552;-69
2022/05/15 14:57:14;;;;;;;11.70;3.67;;;;;;;;;;5126408;27;20520;-69
2022/05/15 14:59:43;;;;;;;7.10;3.38;;;;;;;;;;5114802;28;20039;-69
2022/05/15 15:02:09;;;;;;;10.10;3.20;;;;;;;;;;5114695;28;20035;-69
2022/05/15 15:04:36;;;;;;;7.95;3.55;;;;;;;;;;5113244;28;20048;-69
2022/05/15 15:07:04;;;;;;;8.15;3.33;;;;;;;;;;5114477;28;20059;-69
2022/05/15 15:09:32;;;;;;;10.68;3.67;;;;;;;;;;5113590;28;20506;-69
2022/05/15 15:11:58;;;;;;;9.77;3.65;;;;;;;;;;5124193;27;20056;-69
2022/05/15 15:14:25;;;;;;;7.93;3.40;;;;;;;;;;5110895;28;20056;-69
2022/05/15 15:16:53;;;;;;;7.50;3.47;;;;;;;;;;5113079;28;20052;-69